createdAt,value
2018-09-19T00:00:39.929Z,12.07
2018-09-19T00:03:10.478Z,9.00
2018-09-19T00:05:42.003Z,11.50
2018-09-19T00:08:12.131Z,11.73
2018-09-19T00:10:41.788Z,13.93
2018-09-19T00:13:11.973Z,16.53
2018-09-19T00:15:41.478Z,13.60
2018-09-19T00:18:10.991Z,13.00
2018-09-19T00:20:40.390Z,14.33
2018-09-19T00:23:10.762Z,10.97
2018-09-19T00:25:40.078Z,12.50
2018-09-19T00:28:09.604Z,10.03
2018-09-19T00:30:40.119Z,13.50
2018-09-19T00:33:12.390Z,11.97
2018-09-19T00:35:41.912Z,10.63
2018-09-19T00:38:13.732Z,14.13
2018-09-19T00:40:43.499Z,12.93
2018-09-19T00:43:13.953Z,9.37
2018-09-19T00:45:43.421Z,16.43
2018-09-19T00:48:12.846Z,11.57
2018-09-19T00:50:42.325Z,8.23
2018-09-19T00:53:12.437Z,11.20
2018-09-19T00:55:43.522Z,10.57
2018-09-19T00:58:13.989Z,11.83
2018-09-19T01:00:46.691Z,18.57
2018-09-19T01:03:16.125Z,10.23
2018-09-19T01:05:45.908Z,10.10
2018-09-19T01:08:15.899Z,12.00
2018-09-19T01:10:45.889Z,10.27
2018-09-19T01:13:15.648Z,11.10
2018-09-19T01:15:51.573Z,11.73
2018-09-19T01:18:21.487Z,15.57
2018-09-19T01:20:54.402Z,13.33
2018-09-19T01:23:25.358Z,19.10
2018-09-19T01:25:55.481Z,10.40
2018-09-19T01:28:28.151Z,15.33
2018-09-19T01:30:58.073Z,14.03
2018-09-19T01:33:29.317Z,8.80
2018-09-19T01:35:58.750Z,13.00
2018-09-19T01:38:45.958Z,15.23
2018-09-19T01:41:18.093Z,12.03
2018-09-19T01:43:48.094Z,13.97
2018-09-19T01:46:18.491Z,12.93
2018-09-19T01:48:49.480Z,10.23
2018-09-19T01:51:20.012Z,14.40
2018-09-19T01:53:50.034Z,10.23
2018-09-19T01:56:20.366Z,14.10
2018-09-19T01:58:49.887Z,13.53
2018-09-19T02:01:19.269Z,12.40
2018-09-19T02:03:50.334Z,16.23
2018-09-19T02:06:22.662Z,17.83
2018-09-19T02:08:52.173Z,10.60
2018-09-19T02:11:21.678Z,12.90
2018-09-19T02:13:51.144Z,16.20
2018-09-19T02:16:21.215Z,14.70
2018-09-19T02:18:51.054Z,12.40
2018-09-19T02:21:20.925Z,15.70
2018-09-19T02:23:50.433Z,12.97
2018-09-19T02:26:36.748Z,15.57
2018-09-19T02:29:13.275Z,12.47
2018-09-19T02:31:42.592Z,13.47
2018-09-19T02:34:11.852Z,13.80
2018-09-19T02:36:42.432Z,13.77
2018-09-19T02:39:12.384Z,16.70
2018-09-19T02:41:41.816Z,12.37
2018-09-19T02:44:11.228Z,15.80
2018-09-19T02:46:42.280Z,16.93
2018-09-19T02:49:11.836Z,14.20
2018-09-19T02:51:41.590Z,16.57
2018-09-19T02:54:11.489Z,14.47
2018-09-19T02:56:40.892Z,13.67
2018-09-19T02:59:10.222Z,16.17
2018-09-19T03:01:39.561Z,13.40
2018-09-19T03:04:11.976Z,10.37
2018-09-19T03:06:41.429Z,12.80
2018-09-19T03:09:11.238Z,11.83
2018-09-19T03:14:37.337Z,11.77
2018-09-19T03:17:07.363Z,16.40
2018-09-19T03:19:38.000Z,15.10
2018-09-19T03:22:08.098Z,16.77
2018-09-19T03:24:37.474Z,13.03
2018-09-19T03:27:07.525Z,15.17
2018-09-19T03:29:37.089Z,15.40
2018-09-19T03:32:06.669Z,21.93
2018-09-19T03:34:36.679Z,12.20
2018-09-19T03:37:06.096Z,14.03
2018-09-19T03:39:35.429Z,18.73
2018-09-19T03:42:05.776Z,10.30
2018-09-19T03:44:35.194Z,15.30
2018-09-19T03:47:04.873Z,12.57
2018-09-19T03:49:34.198Z,16.73
2018-09-19T03:52:03.775Z,14.73
2018-09-19T03:54:33.552Z,14.03
2018-09-19T03:57:02.886Z,20.20
2018-09-19T03:59:32.253Z,18.67
2018-09-19T04:02:01.593Z,13.00
2018-09-19T04:04:30.951Z,16.23
2018-09-19T04:07:00.331Z,15.77
2018-09-19T04:09:29.680Z,13.80
2018-09-19T04:11:59.306Z,16.77
2018-09-19T04:14:28.922Z,13.53
2018-09-19T04:16:58.315Z,17.83
2018-09-19T04:19:29.173Z,18.20
2018-09-19T04:21:58.563Z,14.37
2018-09-19T04:24:27.893Z,18.23
2018-09-19T04:26:57.327Z,15.57
2018-09-19T04:29:26.690Z,25.53
2018-09-19T04:31:57.966Z,16.07
2018-09-19T04:34:29.919Z,16.30
2018-09-19T04:36:59.278Z,19.37
2018-09-19T04:39:28.624Z,14.73
2018-09-19T04:41:58.150Z,19.53
2018-09-19T04:44:27.626Z,17.10
2018-09-19T04:46:58.890Z,16.53
2018-09-19T04:49:28.896Z,18.60
2018-09-19T04:51:58.535Z,18.67
2018-09-19T04:54:27.829Z,12.97
2018-09-19T04:56:58.226Z,17.30
2018-09-19T04:59:27.512Z,17.50
2018-09-19T05:01:56.925Z,14.83
2018-09-19T05:04:27.662Z,16.83
2018-09-19T05:06:57.053Z,17.67
2018-09-19T05:09:27.637Z,19.83
2018-09-19T05:11:57.081Z,14.83
2018-09-19T05:14:26.523Z,16.73
2018-09-19T05:16:55.937Z,21.17
2018-09-19T05:19:25.363Z,16.03
2018-09-19T05:21:55.325Z,15.03
2018-09-19T05:24:33.628Z,15.93
2018-09-19T05:27:02.968Z,18.63
2018-09-19T05:29:32.390Z,17.27
2018-09-19T05:32:01.875Z,16.07
2018-09-19T05:34:32.498Z,17.70
2018-09-19T05:37:01.899Z,19.83
2018-09-19T05:39:33.631Z,15.17
2018-09-19T05:42:04.497Z,17.40
2018-09-19T05:44:35.116Z,20.60
2018-09-19T05:47:04.628Z,18.83
2018-09-19T05:49:34.441Z,19.37
2018-09-19T05:52:04.267Z,19.67
2018-09-19T05:54:33.899Z,20.17
2018-09-19T05:57:04.240Z,20.10
2018-09-19T05:59:34.404Z,15.43
2018-09-19T06:02:04.238Z,18.97
2018-09-19T06:04:33.593Z,15.77
2018-09-19T06:07:04.142Z,19.67
2018-09-19T06:09:33.461Z,19.03
2018-09-19T06:12:02.790Z,20.83
2018-09-19T06:14:32.113Z,22.07
2018-09-19T06:17:01.396Z,17.53
2018-09-19T06:19:30.760Z,21.40
2018-09-19T06:22:00.190Z,19.23
2018-09-19T06:24:30.456Z,21.93
2018-09-19T06:26:59.892Z,20.00
2018-09-19T06:29:29.618Z,16.53
2018-09-19T06:31:59.079Z,16.93
2018-09-19T06:34:29.581Z,21.67
2018-09-19T06:36:59.003Z,20.23
2018-09-19T06:39:30.607Z,19.70
2018-09-19T06:42:00.778Z,19.83
2018-09-19T06:44:30.116Z,20.50
2018-09-19T06:47:00.106Z,21.97
2018-09-19T06:49:31.094Z,17.50
2018-09-19T06:52:01.459Z,21.17
2018-09-19T06:54:31.684Z,19.07
2018-09-19T06:57:01.156Z,15.63
2018-09-19T06:59:30.529Z,17.33
2018-09-19T07:01:59.997Z,19.67
2018-09-19T07:04:29.851Z,23.37
2018-09-19T07:07:00.379Z,18.77
2018-09-19T07:09:29.780Z,19.57
2018-09-19T07:11:59.189Z,21.97
2018-09-19T07:14:28.729Z,20.77
2018-09-19T07:16:58.204Z,21.37
2018-09-19T07:19:27.817Z,20.40
2018-09-19T07:21:58.030Z,16.30
2018-09-19T07:24:28.768Z,20.67
2018-09-19T07:26:58.301Z,19.80
2018-09-19T07:29:27.775Z,21.47
2018-09-19T07:31:57.923Z,17.23
2018-09-19T07:34:27.411Z,25.87
2018-09-19T07:36:56.958Z,23.23
2018-09-19T07:39:26.469Z,24.87
2018-09-19T07:41:56.017Z,17.53
2018-09-19T07:44:25.540Z,24.80
2018-09-19T07:46:55.081Z,25.47
2018-09-19T07:49:24.685Z,17.80
2018-09-19T07:51:54.250Z,17.27
2018-09-19T07:54:24.707Z,27.80
2018-09-19T07:56:54.107Z,16.70
2018-09-19T07:59:23.788Z,16.27
2018-09-19T08:01:53.053Z,22.77
2018-09-19T08:04:22.601Z,14.83
2018-09-19T08:06:51.921Z,15.37
2018-09-19T08:09:21.616Z,15.67
2018-09-19T08:11:51.689Z,20.27
2018-09-19T08:14:21.122Z,17.87
2018-09-19T08:16:50.727Z,14.63
2018-09-19T08:19:21.046Z,18.83
2018-09-19T08:21:50.750Z,23.60
2018-09-19T08:24:20.196Z,17.87
2018-09-19T08:26:52.534Z,19.90
2018-09-19T08:29:21.809Z,14.93
2018-09-19T08:31:51.653Z,17.33
2018-09-19T08:34:20.975Z,19.13
2018-09-19T08:36:51.628Z,18.27
2018-09-19T08:39:21.585Z,18.17
2018-09-19T08:41:52.040Z,18.97
2018-09-19T08:44:22.182Z,17.70
2018-09-19T08:46:52.638Z,17.93
2018-09-19T08:49:22.378Z,14.90
2018-09-19T08:51:52.017Z,21.60
2018-09-19T08:54:21.296Z,19.67
2018-09-19T08:56:50.717Z,14.30
2018-09-19T08:59:20.158Z,14.67
2018-09-19T09:01:49.857Z,16.03
2018-09-19T09:04:20.231Z,17.17
2018-09-19T09:06:52.238Z,14.90
2018-09-19T09:09:22.624Z,13.10
2018-09-19T09:11:52.180Z,19.90
2018-09-19T09:14:21.561Z,14.30
2018-09-19T09:16:51.083Z,19.13
2018-09-19T09:19:20.461Z,20.63
2018-09-19T09:21:51.147Z,14.80
2018-09-19T09:24:21.262Z,15.47
2018-09-19T09:26:50.595Z,18.20
2018-09-19T09:29:19.977Z,14.07
2018-09-19T09:31:49.600Z,13.60
2018-09-19T09:34:18.974Z,14.77
2018-09-19T09:36:48.282Z,15.50
2018-09-19T09:39:17.669Z,12.43
2018-09-19T09:41:46.993Z,12.00
2018-09-19T09:44:16.358Z,15.90
2018-09-19T09:46:45.937Z,15.33
2018-09-19T09:49:15.327Z,10.13
2018-09-19T09:51:45.640Z,11.60
2018-09-19T09:54:17.010Z,12.37
2018-09-19T09:56:48.740Z,11.20
2018-09-19T09:59:18.154Z,9.23
2018-09-19T10:01:47.448Z,11.67
2018-09-19T10:04:17.634Z,8.67
2018-09-19T10:06:47.057Z,11.50
2018-09-19T10:09:17.382Z,10.13
2018-09-19T10:11:46.840Z,10.20
2018-09-19T10:14:16.900Z,11.55
2018-09-19T10:16:46.348Z,10.23
2018-09-19T10:19:16.365Z,9.18
2018-09-19T10:21:45.704Z,11.30
2018-09-19T10:24:20.242Z,10.55
2018-09-19T10:26:50.186Z,9.35
2018-09-19T10:29:20.101Z,5.70
2018-09-19T10:31:49.896Z,10.35
2018-09-19T10:34:19.278Z,12.43
2018-09-19T10:36:48.558Z,12.07
2018-09-19T10:39:17.933Z,10.98
2018-09-19T10:41:47.246Z,11.48
2018-09-19T10:44:16.532Z,10.00
2018-09-19T10:46:46.573Z,8.08
2018-09-19T10:49:16.386Z,15.13
2018-09-19T10:51:46.113Z,15.13
2018-09-19T10:54:15.547Z,7.50
2018-09-19T10:56:45.415Z,9.80
2018-09-19T10:59:15.136Z,10.03
2018-09-19T11:01:45.891Z,8.88
2018-09-19T11:04:15.179Z,7.75
2018-09-19T11:06:45.571Z,9.18
2018-09-19T11:09:15.722Z,6.92
2018-09-19T11:11:45.041Z,7.80
2018-09-19T11:14:15.240Z,11.97
2018-09-19T11:16:44.748Z,13.72
2018-09-19T11:19:14.709Z,12.00
2018-09-19T11:21:44.067Z,7.13
2018-09-19T11:24:13.671Z,6.90
2018-09-19T11:26:43.096Z,11.93
2018-09-19T11:29:12.482Z,10.90
2018-09-19T11:31:42.799Z,10.18
2018-09-19T11:34:12.301Z,9.50
2018-09-19T11:36:41.874Z,7.97
2018-09-19T11:39:12.780Z,7.60
2018-09-19T11:41:42.421Z,9.25
2018-09-19T11:44:11.857Z,9.45
2018-09-19T11:46:41.246Z,9.55
2018-09-19T11:49:10.870Z,7.47
2018-09-19T11:51:40.238Z,7.85
2018-09-19T11:54:09.652Z,10.78
2018-09-19T11:56:39.794Z,6.35
2018-09-19T11:59:10.069Z,8.90
2018-09-19T12:01:39.555Z,12.58
2018-09-19T12:04:10.291Z,13.50
2018-09-19T12:06:39.724Z,11.22
2018-09-19T12:09:11.048Z,7.15
2018-09-19T12:11:40.485Z,8.95
2018-09-19T12:14:11.718Z,10.32
2018-09-19T12:16:41.347Z,8.13
2018-09-19T12:19:10.615Z,9.60
2018-09-19T12:21:39.983Z,9.98
2018-09-19T12:24:10.795Z,8.70
2018-09-19T12:26:40.393Z,10.50
2018-09-19T12:29:09.652Z,5.83
2018-09-19T12:31:39.117Z,6.47
2018-09-19T12:34:09.105Z,6.60
2018-09-19T12:36:38.546Z,6.12
2018-09-19T12:39:10.834Z,8.93
2018-09-19T12:41:41.149Z,10.15
2018-09-19T12:44:12.094Z,7.37
2018-09-19T12:46:41.452Z,5.67
2018-09-19T12:49:12.594Z,7.50
2018-09-19T12:51:48.648Z,10.10
2018-09-19T12:54:18.045Z,7.37
2018-09-19T12:56:49.942Z,6.50
2018-09-19T12:59:20.339Z,11.15
2018-09-19T13:01:49.697Z,10.53
2018-09-19T13:04:19.108Z,7.30
2018-09-19T13:06:49.073Z,11.03
2018-09-19T13:09:19.181Z,11.55
2018-09-19T13:11:48.680Z,12.33
2018-09-19T13:14:17.983Z,5.08
2018-09-19T13:16:47.806Z,8.45
2018-09-19T13:19:19.252Z,10.35
2018-09-19T13:21:49.698Z,11.97
2018-09-19T13:24:19.605Z,13.58
2018-09-19T13:26:49.946Z,13.68
2018-09-19T13:29:19.329Z,8.53
2018-09-19T13:31:49.493Z,7.90
2018-09-19T13:34:18.901Z,16.37
2018-09-19T13:36:49.480Z,11.48
2018-09-19T13:39:19.415Z,7.80
2018-09-19T13:41:49.713Z,11.38
2018-09-19T13:44:19.880Z,8.03
2018-09-19T13:46:49.367Z,8.73
2018-09-19T13:49:29.165Z,11.08
2018-09-19T13:51:58.947Z,4.58
2018-09-19T13:54:29.221Z,11.38
2018-09-19T13:56:59.257Z,9.80
2018-09-19T13:59:29.466Z,9.00
2018-09-19T14:01:58.873Z,9.58
2018-09-19T14:04:28.428Z,9.28
2018-09-19T14:06:57.977Z,6.70
2018-09-19T14:09:27.282Z,9.98
2018-09-19T14:11:57.606Z,7.00
2018-09-19T14:14:27.526Z,8.83
2018-09-19T14:16:57.546Z,9.03
2018-09-19T14:19:26.978Z,5.12
2018-09-19T14:21:56.951Z,9.40
2018-09-19T14:24:26.336Z,9.60
2018-09-19T14:26:56.471Z,11.38
2018-09-19T14:29:25.875Z,13.03
2018-09-19T14:31:55.568Z,10.82
2018-09-19T14:34:26.203Z,8.68
2018-09-19T14:36:55.611Z,9.28
2018-09-19T14:39:25.627Z,7.70
2018-09-19T14:41:55.172Z,8.58
2018-09-19T14:44:25.621Z,9.18
2018-09-19T14:46:55.590Z,9.48
2018-09-19T14:49:25.384Z,8.05
2018-09-19T14:51:55.909Z,7.05
2018-09-19T14:54:25.663Z,9.38
2018-09-19T14:56:57.581Z,7.22
2018-09-19T14:59:27.737Z,9.23
2018-09-19T15:01:57.178Z,8.70
2018-09-19T15:04:26.500Z,7.22
2018-09-19T15:06:55.831Z,6.65
2018-09-19T15:09:25.568Z,5.30
2018-09-19T15:11:55.447Z,5.85
2018-09-19T15:14:25.576Z,7.80
2018-09-19T15:16:58.672Z,10.95
2018-09-19T15:19:29.303Z,8.75
2018-09-19T15:21:58.958Z,11.35
2018-09-19T15:24:31.232Z,10.48
2018-09-19T15:27:02.804Z,6.90
2018-09-19T15:29:32.327Z,12.30
2018-09-19T15:32:01.664Z,6.03
2018-09-19T15:34:31.636Z,8.08
2018-09-19T15:37:01.984Z,7.58
2018-09-19T15:39:31.775Z,9.43
2018-09-19T15:42:01.285Z,12.20
2018-09-19T15:44:31.203Z,10.90
2018-09-19T15:47:00.583Z,11.50
2018-09-19T15:49:29.983Z,11.68
2018-09-19T15:51:59.316Z,9.83
2018-09-19T15:54:28.689Z,15.03
2018-09-19T15:56:58.092Z,13.45
2018-09-19T15:59:28.384Z,6.87
2018-09-19T16:01:57.643Z,8.90
2018-09-19T16:04:27.180Z,11.73
2018-09-19T16:06:56.731Z,9.98
2018-09-19T16:09:29.291Z,8.40
2018-09-19T16:11:58.940Z,6.85
2018-09-19T16:14:28.338Z,10.10
2018-09-19T16:16:58.452Z,7.47
2018-09-19T16:19:28.780Z,7.15
2018-09-19T16:21:58.519Z,10.48
2018-09-19T16:24:27.917Z,6.80
2018-09-19T16:26:58.534Z,9.70
2018-09-19T16:29:28.289Z,10.35
2018-09-19T16:31:59.079Z,8.33
2018-09-19T16:34:29.767Z,9.30
2018-09-19T16:37:00.439Z,9.93
2018-09-19T16:39:30.209Z,12.45
2018-09-19T16:42:00.529Z,8.65
2018-09-19T16:44:30.040Z,7.35
2018-09-19T16:46:59.545Z,7.10
2018-09-19T16:49:29.626Z,10.08
2018-09-19T16:51:59.431Z,7.08
2018-09-19T16:54:30.855Z,8.45
2018-09-19T16:57:00.912Z,9.23
2018-09-19T16:59:30.792Z,7.58
2018-09-19T17:02:01.276Z,9.58
2018-09-19T17:04:31.742Z,6.65
2018-09-19T17:07:02.745Z,6.22
2018-09-19T17:09:32.214Z,4.72
2018-09-19T17:12:02.787Z,8.20
2018-09-19T17:14:32.291Z,9.35
2018-09-19T17:17:02.975Z,9.58
2018-09-19T17:19:32.335Z,8.45
2018-09-19T17:22:02.377Z,11.20
2018-09-19T17:24:31.905Z,10.35
2018-09-19T17:27:05.504Z,6.55
2018-09-19T17:29:35.125Z,5.72
2018-09-19T17:32:04.857Z,5.22
2018-09-19T17:34:36.970Z,5.78
2018-09-19T17:37:07.444Z,8.68
2018-09-19T17:39:37.007Z,13.75
2018-09-19T17:42:07.239Z,8.88
2018-09-19T17:44:37.071Z,10.75
2018-09-19T17:47:06.492Z,7.78
2018-09-19T17:49:36.880Z,12.68
2018-09-19T17:52:07.924Z,8.28
2018-09-19T17:54:37.837Z,11.25
2018-09-19T17:57:07.640Z,10.32
2018-09-19T17:59:38.709Z,12.57
2018-09-19T18:02:08.800Z,10.50
2018-09-19T18:04:38.507Z,9.57
2018-09-19T18:07:09.660Z,13.00
2018-09-19T18:09:39.258Z,13.18
2018-09-19T18:12:08.692Z,16.70
2018-09-19T18:14:38.192Z,12.00
2018-09-19T18:17:08.861Z,11.97
2018-09-19T18:19:39.255Z,13.18
2018-09-19T18:22:10.116Z,11.30
2018-09-19T18:24:39.598Z,13.13
2018-09-19T18:27:10.056Z,12.33
2018-09-19T18:29:40.691Z,13.30
2018-09-19T18:32:12.236Z,12.57
2018-09-19T18:34:41.595Z,16.50
2018-09-19T18:37:10.973Z,13.80
2018-09-19T18:39:42.254Z,26.10
2018-09-19T18:42:13.476Z,11.67
2018-09-19T18:44:42.984Z,10.30
2018-09-19T18:47:13.825Z,11.93
2018-09-19T18:49:43.352Z,21.87
2018-09-19T18:52:13.261Z,17.27
2018-09-19T18:54:43.526Z,14.20
2018-09-19T18:57:14.220Z,15.20
2018-09-19T18:59:44.031Z,22.07
2018-09-19T19:02:13.564Z,15.00
2018-09-19T19:04:43.640Z,15.47
2018-09-19T19:07:14.294Z,15.87
2018-09-19T19:09:44.972Z,13.87
2018-09-19T19:12:16.144Z,14.67
2018-09-19T19:14:45.820Z,10.73
2018-09-19T19:17:15.639Z,13.23
2018-09-19T19:19:45.300Z,13.27
2018-09-19T19:22:16.853Z,9.83
2018-09-19T19:24:47.168Z,9.77
2018-09-19T19:27:17.754Z,21.50
2018-09-19T19:29:47.294Z,16.73
2018-09-19T19:32:17.789Z,11.47
2018-09-19T19:34:49.188Z,14.10
2018-09-19T19:37:18.694Z,15.47
2018-09-19T19:39:49.833Z,16.63
2018-09-19T19:42:21.184Z,16.53
2018-09-19T19:44:51.502Z,15.87
2018-09-19T19:47:21.694Z,13.37
2018-09-19T19:49:51.252Z,16.73
2018-09-19T19:52:20.774Z,22.80
2018-09-19T19:54:51.505Z,16.27
2018-09-19T19:57:21.879Z,19.20
2018-09-19T19:59:54.584Z,19.57
2018-09-19T20:02:25.294Z,15.33
2018-09-19T20:04:54.808Z,17.13
2018-09-19T20:07:24.306Z,23.17
2018-09-19T20:09:54.946Z,16.40
2018-09-19T20:12:25.610Z,15.77
2018-09-19T20:14:55.251Z,19.93
2018-09-19T20:17:24.755Z,17.00
2018-09-19T20:19:54.840Z,13.17
2018-09-19T20:22:25.874Z,17.70
2018-09-19T20:24:55.539Z,19.60
2018-09-19T20:27:25.643Z,16.27
2018-09-19T20:29:55.257Z,18.60
2018-09-19T20:32:25.219Z,13.67
2018-09-19T20:34:54.650Z,16.27
2018-09-19T20:37:24.053Z,13.43
2018-09-19T20:39:53.368Z,14.07
2018-09-19T20:42:23.777Z,16.40
2018-09-19T20:44:53.539Z,18.83
2018-09-19T20:47:23.860Z,18.37
2018-09-19T20:49:53.266Z,12.47
2018-09-19T20:52:22.746Z,13.57
2018-09-19T20:54:52.885Z,17.90
2018-09-19T20:57:24.202Z,14.07
2018-09-19T20:59:54.761Z,14.93
2018-09-19T21:02:24.205Z,12.80
2018-09-19T21:04:54.809Z,12.10
2018-09-19T21:07:24.685Z,12.33
2018-09-19T21:09:56.462Z,15.10
2018-09-19T21:12:26.389Z,13.90
2018-09-19T21:14:55.942Z,14.53
2018-09-19T21:17:26.690Z,14.87
2018-09-19T21:19:58.170Z,12.90
2018-09-19T21:22:28.673Z,12.87
2018-09-19T21:24:58.535Z,12.47
2018-09-19T21:27:27.964Z,16.90
2018-09-19T21:29:57.351Z,14.27
2018-09-19T21:32:27.520Z,16.23
2018-09-19T21:34:57.120Z,14.33
2018-09-19T21:37:27.104Z,12.33
2018-09-19T21:39:56.510Z,9.80
2018-09-19T21:42:26.638Z,15.73
2018-09-19T21:44:56.046Z,13.17
2018-09-19T21:47:26.816Z,15.17
2018-09-19T21:49:56.438Z,19.40
2018-09-19T21:52:26.157Z,12.43
2018-09-19T21:54:55.818Z,14.40
2018-09-19T21:57:25.326Z,15.90
2018-09-19T21:59:54.868Z,12.30
2018-09-19T22:02:25.091Z,14.30
2018-09-19T22:04:54.628Z,15.43
2018-09-19T22:07:25.163Z,14.90
2018-09-19T22:10:00.524Z,15.97
2018-09-19T22:12:29.789Z,14.97
2018-09-19T22:14:59.232Z,13.67
2018-09-19T22:17:29.250Z,20.20
2018-09-19T22:19:58.580Z,12.43
2018-09-19T22:22:28.470Z,14.87
2018-09-19T22:24:57.906Z,11.13
2018-09-19T22:27:27.486Z,13.30
2018-09-19T22:29:57.295Z,12.67
2018-09-19T22:32:26.857Z,15.73
2018-09-19T22:34:56.237Z,15.03
2018-09-19T22:37:26.437Z,17.57
2018-09-19T22:39:55.689Z,13.97
2018-09-19T22:42:24.940Z,15.00
2018-09-19T22:45:01.356Z,12.57
2018-09-19T22:47:30.958Z,15.70
2018-09-19T22:50:00.357Z,14.03
2018-09-19T22:52:30.191Z,17.20
2018-09-19T22:54:59.845Z,12.40
2018-09-19T22:57:29.126Z,11.33
2018-09-19T22:59:59.756Z,11.70
2018-09-19T23:02:29.638Z,14.47
2018-09-19T23:04:58.972Z,18.20
2018-09-19T23:07:28.245Z,17.87
2018-09-19T23:09:58.363Z,12.77
2018-09-19T23:12:27.696Z,19.83
2018-09-19T23:14:56.963Z,16.57
2018-09-19T23:17:26.436Z,12.97
2018-09-19T23:19:55.900Z,13.73
2018-09-19T23:22:25.241Z,13.80
2018-09-19T23:24:54.655Z,14.93
2018-09-19T23:27:24.107Z,13.53
2018-09-19T23:29:53.510Z,13.53
2018-09-19T23:32:22.978Z,12.53
2018-09-19T23:34:52.379Z,15.50
2018-09-19T23:37:23.787Z,15.13
2018-09-19T23:39:53.605Z,14.07
2018-09-19T23:42:23.002Z,12.50
2018-09-19T23:44:52.424Z,11.37
2018-09-19T23:47:21.803Z,14.87
2018-09-19T23:49:51.076Z,15.83
2018-09-19T23:52:23.140Z,13.67
2018-09-19T23:54:54.592Z,12.27
2018-09-19T23:57:27.882Z,18.83
2018-09-19T23:59:57.478Z,14.40
